webtimeclock.com alexa rank chart, webtimeclock.com alexa rank daily changes

webtimeclock.com alexa rank chart, webtimeclock.com alexa rank daily changes

webtimeclock.com
Actual rank:
392 503

RANK HISTORY

Date Rank Diff
2017/10/16 392 503 +7 884
2017/10/14 384 619 +9 368
2017/10/13 375 251 -7 713
2017/10/12 382 964 -7 049
2017/10/11 390 013 -11 625
2017/10/10 401 638 +14 765
2017/10/09 386 873 +7 794
2017/10/08 379 079 +3 881
2017/10/07 375 198 +1 764
2017/10/06 373 434 -7 707
2017/10/05 381 141 -10 798
2017/10/04 391 939 +3 789
2017/10/03 388 150 +17 618
2017/10/02 370 532 -592
2017/10/01 371 124 -33 378
2017/09/30 404 502 -6 150
2017/09/29 410 652 -15 187
2017/09/28 425 839 -3 769
2017/09/27 429 608 +12 461
2017/09/26 417 147 +13 212
2017/09/25 403 935 -4 167
2017/09/24 408 102 -6 186
2017/09/23 414 288 +326
2017/09/22 413 962 -6 589
2017/09/20 420 551 -9 218
2017/09/19 429 769 +13 098
2017/09/18 416 671 +2 681
2017/09/17 413 990 -17 568
2017/09/16 431 558 +9 094
2017/09/15 422 464 -11 253
2017/09/14 433 717 -15 826
2017/09/13 449 543 +4 881
2017/09/12 444 662 +24 615
2017/09/11 420 047 +5 766
2017/09/10 414 281 -10 009
2017/09/09 424 290 -4 346
2017/09/08 428 636 -17 512
2017/09/07 446 148 -9 991
2017/09/06 456 139 +27 954
2017/09/05 428 185 +2 688
2017/09/04 425 497 +2 409
2017/09/03 423 088 +5 203
2017/09/02 417 885 -13 003
2017/09/01 430 888 +5 352
2017/08/31 425 536 +7 370
2017/08/30 418 166 +2 516
2017/08/29 415 650 +20 261
2017/08/28 395 389 +3 092
2017/08/27 392 297 -1 504
2017/08/26 393 801 +4 800
2017/08/25 389 001 +4 848
2017/08/24 384 153 -10 375
2017/08/23 394 528 -6 058
2017/08/22 400 586 +26 973
2017/08/21 373 613 +18 104
2017/08/20 355 509 +11 257
2017/08/19 344 252 +5 222
2017/08/18 339 030 -3 219
2017/08/17 342 249

WIDGET FOR YOUR SITE

DOMAINS WITH THE NEAREST RANK

Domain Rank
pocoav.com 392 498
kineticsnoise.com 392 499
smolensk2.ru 392 500
thrillingtravel.in 392 501
knowyourgrinder.com 392 502
webtimeclock.com 392 503
jeankgames.net 392 504
mafiaway.nl 392 505
hadopi.fr 392 506
playmidair.com 392 507
healthjourneys.com 392 508

DOMAINS WITH THE NEAREST RANK BY TLD .com

Domain Rank
0731tg.com 392 495
kudosprime.com 392 497
pocoav.com 392 498
kineticsnoise.com 392 499
knowyourgrinder.com 392 502
webtimeclock.com 392 503
playmidair.com 392 507
healthjourneys.com 392 508
noblecu.com 392 513
pzielinski.com 392 515
genstattu.com 392 518